Terminal Aerodrome Forecast
Issued by NWS Sterling, VA

Current Version | Previous Version | Graphics & Text | Print | Product List | Glossary On
Versions: 1 2 3 4 5 6 7 8 9 10 11 12 13 14 15 16 17 18 19 20 21 22 23
000
FTUS41 KLWX 051725
TAFIAD
TAF
KIAD 051725Z 0518/0624 VRB03KT P6SM SCT050
     FM052100 22005KT P6SM VCSH BKN050
     FM060200 00000KT P6SM BKN090
     FM061800 10005KT P6SM BKN100=

USA.gov is the U.S. government's official web portal to all federal, state and local government web resources and services.